Brentwood, New Hampshire
Current Conditions -  °F | °C
As of 12:58 AM on Saturday 29 Nov 2014 (Local Time) from KPSM Reporting Station
Few Clouds Few Clouds  
Wind Chill: -9°   Ceiling: Unl
Heat Index: -6°   Visibility: 10mi
Dew Point: -9°   Wind: 5mph
Humidity: 76%   Direction: 240°WSW
Pressure: 30.2"   Gusts: NA
Location:  42.9832°N, 70.9915°W
Report Text: KPSM 290558Z 24004KT 10SM FEW040 M06/M09 A3020 RMK AO2A SLP232 4/007 T10561092 11034 21057 52012
Loading
Personal Weather Stations






























Interactive Weather Map New forecast layout! Learn more

10-Day Weather Forecast

Advertisements
Track Severe Weather on mobile